Briefing drone pour Cusset

Rechercher une autre localisation

Conditions de vol :


Nous sommes le : Samedi 03 décembre 2022
Il est 10:01 UTC (11:01 LT)

Lever de soleil : 06:44 UTC (07:44 LT)
Coucher de soleil : 16:27 UTC (17:27 LT)

Météo

L'essentiel des conditions de vol

VIGILANCE MÉTÉO FRANCE - Allier (03)
Pas de vigilances particulieres
CARTES DES FRONTS
METAR de LFLV
LFLV 030930Z AUTO VRB02KT 8000 OVC005 03/02 Q1012

Date d'émission: 03/12/2022
Heure d'émission: 09:30 UTC
Vent: Variable 2 KT (4 km/h)
Visibilité horizontale: 8000 m
Plafond :
- Couvert à 500ft (152m)
Température: 3 °C
Point de rosée: 2 °C
Humidité: 93%
Pression (QNH): 1012 hPa
Prévision 24h pour Vichy (3 km)
Vent : 129° pour 1 KT (2 km/h)
Temperature Maxi: 2 °C
Temperature Min: 2 °C
Humidité : 98%
Condition : Couvert



Warning: count(): Parameter must be an array or an object that implements Countable in /homepages/6/d509196549/htdocs/droneoxygene/briefing.php on line 743
WEBCAM POUR CUSSET

Réglementation

Voler en sécurité

CARTES AERONAUTIQUE 1/500.000
CARTE AZBA (Reseau basse altitude)
CARTES VAC (LFLV)
SUP AIP




Chargement des AIP...
NOTAM (CUSSET + Terrain à proximité / FIR )




Chargement des NOTAMS...
CONTACT PREFECTURE 03


Avertissement : Les données mises à disposition sont indicatives. Oxygène Drone ne pourra être tenu responsable de dégâts causés aux biens et aux personnes.